Terminal Aerodrome Forecast
Issued by NWS

Home | Current Version | Previous Version | Text Only | Print | Product List | Glossary On
Versions: 1 2 3 4 5 6 7 8 9 10 11 12 13 14 15 16 17 18 19 20 21 22 23 24 25 26 27 28 29 30 31 32 33 34
000
FTUS43 KDLH 160500 AAA
TAFHYR
TAF AMD
KHYR 160511Z 1605/1624 02006KT 3SM -DZ BR SCT008 BKN022 OVC040
     FM160600 01010G14KT 4SM -SN BKN008 OVC019
      TEMPO 1607/1609 2SM -SN BKN006
     FM161100 35011G18KT 3SM -SN OVC008
     FM161400 34010KT P6SM VCSH OVC012=

USA.gov is the U.S. government's official web portal to all federal, state and local government web resources and services.